sensor_id;sensor_type;location;lat;lon;timestamp;temperature;humidity
4187;DHT22;2107;52.306;10.484;2023-06-22T00:00:00;18.20;1.00
4187;DHT22;2107;52.306;10.484;2023-06-22T00:02:33;18.10;1.00
4187;DHT22;2107;52.306;10.484;2023-06-22T00:05:00;18.00;1.00
4187;DHT22;2107;52.306;10.484;2023-06-22T00:07:27;18.00;9.50
4187;DHT22;2107;52.306;10.484;2023-06-22T00:09:54;17.80;99.90
4187;DHT22;2107;52.306;10.484;2023-06-22T00:12:21;17.80;1.00
4187;DHT22;2107;52.306;10.484;2023-06-22T00:14:49;17.80;99.90
4187;DHT22;2107;52.306;10.484;2023-06-22T00:17:16;17.80;99.90
4187;DHT22;2107;52.306;10.484;2023-06-22T00:19:42;17.80;1.00
4187;DHT22;2107;52.306;10.484;2023-06-22T00:22:09;17.80;1.00
4187;DHT22;2107;52.306;10.484;2023-06-22T00:24:36;17.80;1.00
4187;DHT22;2107;52.306;10.484;2023-06-22T00:27:03;17.80;1.00
4187;DHT22;2107;52.306;10.484;2023-06-22T00:29:31;17.90;1.00
4187;DHT22;2107;52.306;10.484;2023-06-22T00:31:59;17.90;1.00
4187;DHT22;2107;52.306;10.484;2023-06-22T00:34:26;17.90;1.00
4187;DHT22;2107;52.306;10.484;2023-06-22T00:36:53;17.80;1.00
4187;DHT22;2107;52.306;10.484;2023-06-22T00:39:20;17.80;1.00
4187;DHT22;2107;52.306;10.484;2023-06-22T00:41:46;17.80;1.00
4187;DHT22;2107;52.306;10.484;2023-06-22T00:44:13;17.80;1.00
4187;DHT22;2107;52.306;10.484;2023-06-22T00:46:40;17.80;1.00
4187;DHT22;2107;52.306;10.484;2023-06-22T00:49:08;17.70;1.00
4187;DHT22;2107;52.306;10.484;2023-06-22T00:51:36;17.70;99.90
4187;DHT22;2107;52.306;10.484;2023-06-22T00:54:05;17.60;99.90
4187;DHT22;2107;52.306;10.484;2023-06-22T00:56:32;17.60;1.00
4187;DHT22;2107;52.306;10.484;2023-06-22T00:59:03;17.70;1.00
4187;DHT22;2107;52.306;10.484;2023-06-22T01:01:30;17.70;1.00
4187;DHT22;2107;52.306;10.484;2023-06-22T01:03:57;17.60;99.90
4187;DHT22;2107;52.306;10.484;2023-06-22T01:06:32;17.50;1.00
4187;DHT22;2107;52.306;10.484;2023-06-22T01:09:08;17.50;13.30
4187;DHT22;2107;52.306;10.484;2023-06-22T01:11:40;17.60;1.00
4187;DHT22;2107;52.306;10.484;2023-06-22T01:14:14;17.60;1.00
4187;DHT22;2107;52.306;10.484;2023-06-22T01:16:43;17.60;99.90
4187;DHT22;2107;52.306;10.484;2023-06-22T01:19:25;17.70;99.90
4187;DHT22;2107;52.306;10.484;2023-06-22T01:21:58;17.70;1.00
4187;DHT22;2107;52.306;10.484;2023-06-22T01:24:30;17.70;1.00
4187;DHT22;2107;52.306;10.484;2023-06-22T01:27:15;17.70;99.90
4187;DHT22;2107;52.306;10.484;2023-06-22T01:29:49;17.70;99.90
4187;DHT22;2107;52.306;10.484;2023-06-22T01:32:17;17.70;99.90
4187;DHT22;2107;52.306;10.484;2023-06-22T01:34:45;17.70;99.90
4187;DHT22;2107;52.306;10.484;2023-06-22T01:37:13;17.70;99.90
4187;DHT22;2107;52.306;10.484;2023-06-22T01:39:41;17.70;58.30
4187;DHT22;2107;52.306;10.484;2023-06-22T01:42:09;17.70;1.00
4187;DHT22;2107;52.306;10.484;2023-06-22T01:44:36;17.60;1.00
4187;DHT22;2107;52.306;10.484;2023-06-22T01:47:06;17.70;1.00
4187;DHT22;2107;52.306;10.484;2023-06-22T01:49:33;17.70;1.00
4187;DHT22;2107;52.306;10.484;2023-06-22T01:52:00;17.70;99.90
4187;DHT22;2107;52.306;10.484;2023-06-22T01:54:27;17.60;99.90
4187;DHT22;2107;52.306;10.484;2023-06-22T01:56:54;17.60;1.00
4187;DHT22;2107;52.306;10.484;2023-06-22T01:59:26;17.60;1.00
4187;DHT22;2107;52.306;10.484;2023-06-22T02:02:00;17.50;1.00
4187;DHT22;2107;52.306;10.484;2023-06-22T02:04:36;17.50;1.00
4187;DHT22;2107;52.306;10.484;2023-06-22T02:07:10;17.50;1.00
4187;DHT22;2107;52.306;10.484;2023-06-22T02:09:39;17.50;1.00
4187;DHT22;2107;52.306;10.484;2023-06-22T02:12:09;17.40;1.00
4187;DHT22;2107;52.306;10.484;2023-06-22T02:14:37;17.50;1.00
4187;DHT22;2107;52.306;10.484;2023-06-22T02:17:05;17.50;1.00
4187;DHT22;2107;52.306;10.484;2023-06-22T02:19:36;17.40;1.00
4187;DHT22;2107;52.306;10.484;2023-06-22T02:22:03;17.50;1.00
4187;DHT22;2107;52.306;10.484;2023-06-22T02:24:30;17.50;99.90
4187;DHT22;2107;52.306;10.484;2023-06-22T02:26:59;17.50;99.90
4187;DHT22;2107;52.306;10.484;2023-06-22T02:29:26;17.50;99.90
4187;DHT22;2107;52.306;10.484;2023-06-22T02:31:53;17.50;99.90
4187;DHT22;2107;52.306;10.484;2023-06-22T02:34:21;17.50;99.90
4187;DHT22;2107;52.306;10.484;2023-06-22T02:36:50;17.40;99.90
4187;DHT22;2107;52.306;10.484;2023-06-22T02:39:19;17.40;99.90
4187;DHT22;2107;52.306;10.484;2023-06-22T02:41:47;17.30;99.90
4187;DHT22;2107;52.306;10.484;2023-06-22T02:44:14;17.30;99.90
4187;DHT22;2107;52.306;10.484;2023-06-22T02:46:41;17.30;99.90
4187;DHT22;2107;52.306;10.484;2023-06-22T02:49:08;17.30;99.90
4187;DHT22;2107;52.306;10.484;2023-06-22T02:51:35;17.30;41.40
4187;DHT22;2107;52.306;10.484;2023-06-22T02:54:03;17.20;45.70
4187;DHT22;2107;52.306;10.484;2023-06-22T02:56:30;17.20;99.90
4187;DHT22;2107;52.306;10.484;2023-06-22T02:58:57;17.20;99.90
4187;DHT22;2107;52.306;10.484;2023-06-22T03:01:26;17.20;99.90
4187;DHT22;2107;52.306;10.484;2023-06-22T03:03:53;17.20;54.40
4187;DHT22;2107;52.306;10.484;2023-06-22T03:06:20;17.20;1.00
4187;DHT22;2107;52.306;10.484;2023-06-22T03:08:49;17.20;1.00
4187;DHT22;2107;52.306;10.484;2023-06-22T03:11:17;17.20;17.10
4187;DHT22;2107;52.306;10.484;2023-06-22T03:13:44;17.20;19.30
4187;DHT22;2107;52.306;10.484;2023-06-22T03:16:12;17.30;2.60
4187;DHT22;2107;52.306;10.484;2023-06-22T03:18:38;17.40;1.00
4187;DHT22;2107;52.306;10.484;2023-06-22T03:21:05;17.40;1.00
4187;DHT22;2107;52.306;10.484;2023-06-22T03:23:32;17.50;1.00
4187;DHT22;2107;52.306;10.484;2023-06-22T03:25:59;17.50;1.00
4187;DHT22;2107;52.306;10.484;2023-06-22T03:28:27;17.50;99.90
4187;DHT22;2107;52.306;10.484;2023-06-22T03:30:54;17.50;99.90
4187;DHT22;2107;52.306;10.484;2023-06-22T03:33:21;17.60;99.90
4187;DHT22;2107;52.306;10.484;2023-06-22T03:35:48;17.60;99.90
4187;DHT22;2107;52.306;10.484;2023-06-22T03:38:15;17.70;99.90
4187;DHT22;2107;52.306;10.484;2023-06-22T03:40:42;17.60;99.90
4187;DHT22;2107;52.306;10.484;2023-06-22T03:43:09;17.60;99.90
4187;DHT22;2107;52.306;10.484;2023-06-22T03:45:37;17.60;99.90
4187;DHT22;2107;52.306;10.484;2023-06-22T03:48:06;17.60;99.90
4187;DHT22;2107;52.306;10.484;2023-06-22T03:50:32;17.70;1.00
4187;DHT22;2107;52.306;10.484;2023-06-22T03:52:59;17.80;1.00
4187;DHT22;2107;52.306;10.484;2023-06-22T03:55:26;17.90;1.00
4187;DHT22;2107;52.306;10.484;2023-06-22T03:57:54;18.10;11.90
4187;DHT22;2107;52.306;10.484;2023-06-22T04:00:22;18.30;1.00
4187;DHT22;2107;52.306;10.484;2023-06-22T04:02:51;18.50;99.90
4187;DHT22;2107;52.306;10.484;2023-06-22T04:05:17;18.60;1.00
4187;DHT22;2107;52.306;10.484;2023-06-22T04:07:44;18.80;99.90
4187;DHT22;2107;52.306;10.484;2023-06-22T04:10:11;19.10;99.90
4187;DHT22;2107;52.306;10.484;2023-06-22T04:12:38;19.60;99.90
4187;DHT22;2107;52.306;10.484;2023-06-22T04:15:06;20.00;1.00
4187;DHT22;2107;52.306;10.484;2023-06-22T04:17:33;20.30;99.90
4187;DHT22;2107;52.306;10.484;2023-06-22T04:20:02;20.60;56.60
4187;DHT22;2107;52.306;10.484;2023-06-22T04:22:30;20.80;1.00
4187;DHT22;2107;52.306;10.484;2023-06-22T04:24:57;20.90;99.90
4187;DHT22;2107;52.306;10.484;2023-06-22T04:27:23;21.00;99.90
4187;DHT22;2107;52.306;10.484;2023-06-22T04:29:50;21.20;23.40
4187;DHT22;2107;52.306;10.484;2023-06-22T04:32:17;21.20;1.00
4187;DHT22;2107;52.306;10.484;2023-06-22T04:34:44;21.20;1.00
4187;DHT22;2107;52.306;10.484;2023-06-22T04:37:13;21.20;99.90
4187;DHT22;2107;52.306;10.484;2023-06-22T04:39:41;21.10;99.90
4187;DHT22;2107;52.306;10.484;2023-06-22T04:42:08;20.90;99.90
4187;DHT22;2107;52.306;10.484;2023-06-22T04:44:35;20.90;99.90
4187;DHT22;2107;52.306;10.484;2023-06-22T04:47:02;21.00;99.90
4187;DHT22;2107;52.306;10.484;2023-06-22T04:49:32;21.00;99.90
4187;DHT22;2107;52.306;10.484;2023-06-22T04:52:00;21.10;99.90
4187;DHT22;2107;52.306;10.484;2023-06-22T04:54:29;21.00;99.90
4187;DHT22;2107;52.306;10.484;2023-06-22T04:56:58;20.90;99.90
4187;DHT22;2107;52.306;10.484;2023-06-22T04:59:26;20.90;99.90
4187;DHT22;2107;52.306;10.484;2023-06-22T05:01:55;20.80;99.90
4187;DHT22;2107;52.306;10.484;2023-06-22T05:04:22;20.90;99.90
4187;DHT22;2107;52.306;10.484;2023-06-22T05:06:50;21.10;99.90
4187;DHT22;2107;52.306;10.484;2023-06-22T05:09:17;21.10;99.90
4187;DHT22;2107;52.306;10.484;2023-06-22T05:11:45;21.10;99.90
4187;DHT22;2107;52.306;10.484;2023-06-22T05:14:13;21.10;99.90
4187;DHT22;2107;52.306;10.484;2023-06-22T05:16:41;21.00;99.90
4187;DHT22;2107;52.306;10.484;2023-06-22T05:19:08;21.20;99.90
4187;DHT22;2107;52.306;10.484;2023-06-22T05:21:35;21.10;99.90
4187;DHT22;2107;52.306;10.484;2023-06-22T05:24:03;21.40;99.90
4187;DHT22;2107;52.306;10.484;2023-06-22T05:26:31;21.50;99.90
4187;DHT22;2107;52.306;10.484;2023-06-22T05:29:00;21.60;99.90
4187;DHT22;2107;52.306;10.484;2023-06-22T05:31:27;21.70;86.60
4187;DHT22;2107;52.306;10.484;2023-06-22T05:33:55;21.80;57.80
4187;DHT22;2107;52.306;10.484;2023-06-22T05:36:22;21.80;42.40
4187;DHT22;2107;52.306;10.484;2023-06-22T05:38:50;21.80;19.70
4187;DHT22;2107;52.306;10.484;2023-06-22T05:41:17;22.10;10.30
4187;DHT22;2107;52.306;10.484;2023-06-22T05:43:44;22.30;1.00
4187;DHT22;2107;52.306;10.484;2023-06-22T05:46:13;22.20;1.00
4187;DHT22;2107;52.306;10.484;2023-06-22T05:48:40;22.60;1.00
4187;DHT22;2107;52.306;10.484;2023-06-22T05:51:06;22.80;1.00
4187;DHT22;2107;52.306;10.484;2023-06-22T05:53:33;22.30;1.00
4187;DHT22;2107;52.306;10.484;2023-06-22T05:56:00;22.50;1.00
4187;DHT22;2107;52.306;10.484;2023-06-22T05:58:27;22.60;1.00
4187;DHT22;2107;52.306;10.484;2023-06-22T06:00:54;22.70;1.00
4187;DHT22;2107;52.306;10.484;2023-06-22T06:03:22;22.90;1.00
4187;DHT22;2107;52.306;10.484;2023-06-22T06:05:49;23.00;1.00
4187;DHT22;2107;52.306;10.484;2023-06-22T06:08:16;22.80;1.00
4187;DHT22;2107;52.306;10.484;2023-06-22T06:10:43;22.40;1.00
4187;DHT22;2107;52.306;10.484;2023-06-22T06:13:10;22.40;1.00
4187;DHT22;2107;52.306;10.484;2023-06-22T06:15:37;22.70;1.00
4187;DHT22;2107;52.306;10.484;2023-06-22T06:18:04;22.90;1.00
4187;DHT22;2107;52.306;10.484;2023-06-22T06:20:33;22.90;1.00
4187;DHT22;2107;52.306;10.484;2023-06-22T06:23:00;23.00;1.00
4187;DHT22;2107;52.306;10.484;2023-06-22T06:25:27;22.90;1.00
4187;DHT22;2107;52.306;10.484;2023-06-22T06:27:54;23.00;1.00
4187;DHT22;2107;52.306;10.484;2023-06-22T06:30:22;23.20;1.00
4187;DHT22;2107;52.306;10.484;2023-06-22T06:32:50;23.40;1.00
4187;DHT22;2107;52.306;10.484;2023-06-22T06:35:17;23.60;1.00
4187;DHT22;2107;52.306;10.484;2023-06-22T06:37:47;23.80;1.00
4187;DHT22;2107;52.306;10.484;2023-06-22T06:40:15;24.00;1.00
4187;DHT22;2107;52.306;10.484;2023-06-22T06:42:43;24.10;1.00
4187;DHT22;2107;52.306;10.484;2023-06-22T06:45:11;23.90;1.00
4187;DHT22;2107;52.306;10.484;2023-06-22T06:47:38;23.70;1.00
4187;DHT22;2107;52.306;10.484;2023-06-22T06:50:06;23.50;1.00
4187;DHT22;2107;52.306;10.484;2023-06-22T06:52:34;23.30;1.00
4187;DHT22;2107;52.306;10.484;2023-06-22T06:55:03;23.50;1.00
4187;DHT22;2107;52.306;10.484;2023-06-22T06:57:33;23.50;1.00
4187;DHT22;2107;52.306;10.484;2023-06-22T07:00:00;23.40;1.00
4187;DHT22;2107;52.306;10.484;2023-06-22T07:02:28;23.50;1.00
4187;DHT22;2107;52.306;10.484;2023-06-22T07:04:54;23.40;1.00
4187;DHT22;2107;52.306;10.484;2023-06-22T07:07:21;23.60;1.00
4187;DHT22;2107;52.306;10.484;2023-06-22T07:09:48;23.50;1.00
4187;DHT22;2107;52.306;10.484;2023-06-22T07:12:16;23.50;1.00
4187;DHT22;2107;52.306;10.484;2023-06-22T07:14:43;23.80;1.00
4187;DHT22;2107;52.306;10.484;2023-06-22T07:17:10;24.00;1.00
4187;DHT22;2107;52.306;10.484;2023-06-22T07:19:37;24.10;1.00
4187;DHT22;2107;52.306;10.484;2023-06-22T07:22:04;24.30;1.00
4187;DHT22;2107;52.306;10.484;2023-06-22T07:24:31;24.20;1.00
4187;DHT22;2107;52.306;10.484;2023-06-22T07:26:59;23.50;1.00
4187;DHT22;2107;52.306;10.484;2023-06-22T07:29:27;23.50;1.00
4187;DHT22;2107;52.306;10.484;2023-06-22T07:31:54;23.80;1.00
4187;DHT22;2107;52.306;10.484;2023-06-22T07:34:22;24.30;1.00
4187;DHT22;2107;52.306;10.484;2023-06-22T07:36:49;23.80;1.00
4187;DHT22;2107;52.306;10.484;2023-06-22T07:39:15;24.30;1.00
4187;DHT22;2107;52.306;10.484;2023-06-22T07:41:42;24.70;1.00
4187;DHT22;2107;52.306;10.484;2023-06-22T07:44:09;24.80;1.00
4187;DHT22;2107;52.306;10.484;2023-06-22T07:46:37;25.40;1.00
4187;DHT22;2107;52.306;10.484;2023-06-22T07:49:04;25.50;1.00
4187;DHT22;2107;52.306;10.484;2023-06-22T07:51:33;24.70;1.00
4187;DHT22;2107;52.306;10.484;2023-06-22T07:54:00;24.50;1.00
4187;DHT22;2107;52.306;10.484;2023-06-22T07:56:27;25.10;1.00
4187;DHT22;2107;52.306;10.484;2023-06-22T07:58:54;25.50;1.00
4187;DHT22;2107;52.306;10.484;2023-06-22T08:01:24;26.10;1.00
4187;DHT22;2107;52.306;10.484;2023-06-22T08:03:52;26.10;1.00
4187;DHT22;2107;52.306;10.484;2023-06-22T08:06:19;26.50;1.00
4187;DHT22;2107;52.306;10.484;2023-06-22T08:08:46;26.40;1.00
4187;DHT22;2107;52.306;10.484;2023-06-22T08:11:14;26.80;1.00
4187;DHT22;2107;52.306;10.484;2023-06-22T08:13:41;26.60;1.00
4187;DHT22;2107;52.306;10.484;2023-06-22T08:16:08;26.50;1.00
4187;DHT22;2107;52.306;10.484;2023-06-22T08:18:36;26.60;99.90
4187;DHT22;2107;52.306;10.484;2023-06-22T08:21:05;26.50;99.90
4187;DHT22;2107;52.306;10.484;2023-06-22T08:23:31;27.00;99.90
4187;DHT22;2107;52.306;10.484;2023-06-22T08:25:58;27.10;99.90
4187;DHT22;2107;52.306;10.484;2023-06-22T08:28:25;26.20;99.90
4187;DHT22;2107;52.306;10.484;2023-06-22T08:30:52;26.40;99.90
4187;DHT22;2107;52.306;10.484;2023-06-22T08:33:21;26.60;99.90
4187;DHT22;2107;52.306;10.484;2023-06-22T08:35:49;26.60;99.90
4187;DHT22;2107;52.306;10.484;2023-06-22T08:38:17;26.00;99.90
4187;DHT22;2107;52.306;10.484;2023-06-22T08:40:44;26.20;99.90
4187;DHT22;2107;52.306;10.484;2023-06-22T08:43:11;26.50;1.00
4187;DHT22;2107;52.306;10.484;2023-06-22T08:45:38;26.80;1.00
4187;DHT22;2107;52.306;10.484;2023-06-22T08:48:05;26.50;99.90
4187;DHT22;2107;52.306;10.484;2023-06-22T08:50:32;26.50;99.90
4187;DHT22;2107;52.306;10.484;2023-06-22T08:52:59;26.70;99.90
4187;DHT22;2107;52.306;10.484;2023-06-22T08:55:27;26.80;99.90
4187;DHT22;2107;52.306;10.484;2023-06-22T08:57:54;26.00;99.90
4187;DHT22;2107;52.306;10.484;2023-06-22T09:00:20;26.50;1.00
4187;DHT22;2107;52.306;10.484;2023-06-22T09:02:47;26.60;99.90
4187;DHT22;2107;52.306;10.484;2023-06-22T09:05:15;27.10;99.90
4187;DHT22;2107;52.306;10.484;2023-06-22T09:07:42;26.90;99.90
4187;DHT22;2107;52.306;10.484;2023-06-22T09:10:09;26.80;99.90
4187;DHT22;2107;52.306;10.484;2023-06-22T09:12:38;26.90;99.90
4187;DHT22;2107;52.306;10.484;2023-06-22T09:15:06;27.20;99.90
4187;DHT22;2107;52.306;10.484;2023-06-22T09:17:33;27.70;99.90
4187;DHT22;2107;52.306;10.484;2023-06-22T09:20:02;27.60;99.90
4187;DHT22;2107;52.306;10.484;2023-06-22T09:22:31;27.40;99.90
4187;DHT22;2107;52.306;10.484;2023-06-22T09:24:58;27.60;99.90
4187;DHT22;2107;52.306;10.484;2023-06-22T09:27:26;27.90;99.90
4187;DHT22;2107;52.306;10.484;2023-06-22T09:29:54;27.50;99.90
4187;DHT22;2107;52.306;10.484;2023-06-22T09:32:23;28.10;99.90
4187;DHT22;2107;52.306;10.484;2023-06-22T09:34:50;29.00;99.90
4187;DHT22;2107;52.306;10.484;2023-06-22T09:37:18;29.50;99.90
4187;DHT22;2107;52.306;10.484;2023-06-22T09:39:45;29.50;99.90
4187;DHT22;2107;52.306;10.484;2023-06-22T09:42:12;29.40;99.90
4187;DHT22;2107;52.306;10.484;2023-06-22T09:44:39;28.50;99.90
4187;DHT22;2107;52.306;10.484;2023-06-22T09:47:08;28.30;99.90
4187;DHT22;2107;52.306;10.484;2023-06-22T09:49:34;28.90;99.90
4187;DHT22;2107;52.306;10.484;2023-06-22T09:52:01;29.80;99.90
4187;DHT22;2107;52.306;10.484;2023-06-22T09:54:28;30.70;99.90
4187;DHT22;2107;52.306;10.484;2023-06-22T09:56:55;29.30;99.90
4187;DHT22;2107;52.306;10.484;2023-06-22T09:59:22;30.30;99.90
4187;DHT22;2107;52.306;10.484;2023-06-22T10:01:49;31.00;99.90
4187;DHT22;2107;52.306;10.484;2023-06-22T10:04:17;31.70;99.90
4187;DHT22;2107;52.306;10.484;2023-06-22T10:06:44;30.90;99.90
4187;DHT22;2107;52.306;10.484;2023-06-22T10:09:11;30.10;99.90
4187;DHT22;2107;52.306;10.484;2023-06-22T10:11:38;30.30;99.90
4187;DHT22;2107;52.306;10.484;2023-06-22T10:14:05;30.00;99.90
4187;DHT22;2107;52.306;10.484;2023-06-22T10:16:32;30.00;99.90
4187;DHT22;2107;52.306;10.484;2023-06-22T10:19:01;30.70;99.90
4187;DHT22;2107;52.306;10.484;2023-06-22T10:21:29;29.40;99.90
4187;DHT22;2107;52.306;10.484;2023-06-22T10:23:56;27.90;99.90
4187;DHT22;2107;52.306;10.484;2023-06-22T10:26:22;28.00;99.90
4187;DHT22;2107;52.306;10.484;2023-06-22T10:28:50;29.30;99.90
4187;DHT22;2107;52.306;10.484;2023-06-22T10:31:17;29.70;99.90
4187;DHT22;2107;52.306;10.484;2023-06-22T10:33:43;29.10;99.90
4187;DHT22;2107;52.306;10.484;2023-06-22T10:36:10;29.00;99.90
4187;DHT22;2107;52.306;10.484;2023-06-22T10:38:39;29.10;99.90
4187;DHT22;2107;52.306;10.484;2023-06-22T10:41:05;28.90;99.90
4187;DHT22;2107;52.306;10.484;2023-06-22T10:43:32;29.40;99.90
4187;DHT22;2107;52.306;10.484;2023-06-22T10:45:59;28.70;99.90
4187;DHT22;2107;52.306;10.484;2023-06-22T10:48:26;27.80;99.90
4187;DHT22;2107;52.306;10.484;2023-06-22T10:50:53;28.00;99.90
4187;DHT22;2107;52.306;10.484;2023-06-22T10:53:21;27.20;99.90
4187;DHT22;2107;52.306;10.484;2023-06-22T10:55:49;27.10;99.90
4187;DHT22;2107;52.306;10.484;2023-06-22T10:58:18;27.20;99.90
4187;DHT22;2107;52.306;10.484;2023-06-22T11:00:45;28.10;99.90
4187;DHT22;2107;52.306;10.484;2023-06-22T11:03:12;28.70;99.90
4187;DHT22;2107;52.306;10.484;2023-06-22T11:05:39;30.10;99.90
4187;DHT22;2107;52.306;10.484;2023-06-22T11:08:07;28.90;99.90
4187;DHT22;2107;52.306;10.484;2023-06-22T11:10:34;28.70;99.90
4187;DHT22;2107;52.306;10.484;2023-06-22T11:13:02;29.80;99.90
4187;DHT22;2107;52.306;10.484;2023-06-22T11:15:30;29.70;99.90
4187;DHT22;2107;52.306;10.484;2023-06-22T11:17:57;29.80;99.90
4187;DHT22;2107;52.306;10.484;2023-06-22T11:20:24;30.60;99.90
4187;DHT22;2107;52.306;10.484;2023-06-22T11:22:50;30.50;99.90
4187;DHT22;2107;52.306;10.484;2023-06-22T11:25:18;30.90;99.90
4187;DHT22;2107;52.306;10.484;2023-06-22T11:27:44;31.00;99.90
4187;DHT22;2107;52.306;10.484;2023-06-22T11:30:13;31.20;99.90
4187;DHT22;2107;52.306;10.484;2023-06-22T11:32:40;30.30;99.90
4187;DHT22;2107;52.306;10.484;2023-06-22T11:35:07;30.30;99.90
4187;DHT22;2107;52.306;10.484;2023-06-22T11:37:34;30.90;99.90
4187;DHT22;2107;52.306;10.484;2023-06-22T11:40:01;31.00;99.90
4187;DHT22;2107;52.306;10.484;2023-06-22T11:42:30;31.10;99.90
4187;DHT22;2107;52.306;10.484;2023-06-22T11:44:57;31.10;99.90
4187;DHT22;2107;52.306;10.484;2023-06-22T11:47:25;31.40;99.90
4187;DHT22;2107;52.306;10.484;2023-06-22T11:49:52;32.20;99.90
4187;DHT22;2107;52.306;10.484;2023-06-22T11:52:19;32.30;99.90
4187;DHT22;2107;52.306;10.484;2023-06-22T11:54:46;29.70;99.90
4187;DHT22;2107;52.306;10.484;2023-06-22T11:57:13;29.80;99.90
4187;DHT22;2107;52.306;10.484;2023-06-22T11:59:40;29.20;99.90
4187;DHT22;2107;52.306;10.484;2023-06-22T12:02:06;28.80;99.90
4187;DHT22;2107;52.306;10.484;2023-06-22T12:04:36;29.80;99.90
4187;DHT22;2107;52.306;10.484;2023-06-22T12:07:03;30.30;99.90
4187;DHT22;2107;52.306;10.484;2023-06-22T12:09:30;30.30;99.90
4187;DHT22;2107;52.306;10.484;2023-06-22T12:11:57;30.90;99.90
4187;DHT22;2107;52.306;10.484;2023-06-22T12:14:24;31.20;99.90
4187;DHT22;2107;52.306;10.484;2023-06-22T12:16:51;31.20;99.90
4187;DHT22;2107;52.306;10.484;2023-06-22T12:19:17;30.80;99.90
4187;DHT22;2107;52.306;10.484;2023-06-22T12:21:46;31.30;99.90
4187;DHT22;2107;52.306;10.484;2023-06-22T12:24:13;31.70;99.90
4187;DHT22;2107;52.306;10.484;2023-06-22T12:26:40;32.30;99.90
4187;DHT22;2107;52.306;10.484;2023-06-22T12:29:07;32.40;99.90
4187;DHT22;2107;52.306;10.484;2023-06-22T12:31:35;31.70;99.90
4187;DHT22;2107;52.306;10.484;2023-06-22T12:34:04;31.10;99.90
4187;DHT22;2107;52.306;10.484;2023-06-22T12:36:31;30.80;99.90
4187;DHT22;2107;52.306;10.484;2023-06-22T12:38:59;29.50;99.90
4187;DHT22;2107;52.306;10.484;2023-06-22T12:41:26;30.40;99.90
4187;DHT22;2107;52.306;10.484;2023-06-22T12:43:53;30.40;99.90
4187;DHT22;2107;52.306;10.484;2023-06-22T12:46:19;30.30;99.90
4187;DHT22;2107;52.306;10.484;2023-06-22T12:48:46;30.30;99.90
4187;DHT22;2107;52.306;10.484;2023-06-22T12:51:21;30.50;99.90
4187;DHT22;2107;52.306;10.484;2023-06-22T12:53:48;31.30;99.90
4187;DHT22;2107;52.306;10.484;2023-06-22T12:56:16;31.50;99.90
4187;DHT22;2107;52.306;10.484;2023-06-22T12:58:43;31.80;99.90
4187;DHT22;2107;52.306;10.484;2023-06-22T13:01:10;30.90;99.90
4187;DHT22;2107;52.306;10.484;2023-06-22T13:03:37;31.40;99.90
4187;DHT22;2107;52.306;10.484;2023-06-22T13:06:04;31.10;99.90
4187;DHT22;2107;52.306;10.484;2023-06-22T13:08:31;30.80;99.90
4187;DHT22;2107;52.306;10.484;2023-06-22T13:10:58;31.60;99.90
4187;DHT22;2107;52.306;10.484;2023-06-22T13:13:26;29.90;99.90
4187;DHT22;2107;52.306;10.484;2023-06-22T13:15:53;29.70;99.90
4187;DHT22;2107;52.306;10.484;2023-06-22T13:18:20;30.30;99.90
4187;DHT22;2107;52.306;10.484;2023-06-22T13:20:47;31.10;99.90
4187;DHT22;2107;52.306;10.484;2023-06-22T13:23:14;30.60;99.90
4187;DHT22;2107;52.306;10.484;2023-06-22T13:25:40;30.90;99.90
4187;DHT22;2107;52.306;10.484;2023-06-22T13:28:07;30.40;99.90
4187;DHT22;2107;52.306;10.484;2023-06-22T13:30:37;30.30;99.90
4187;DHT22;2107;52.306;10.484;2023-06-22T13:33:04;30.70;99.90
4187;DHT22;2107;52.306;10.484;2023-06-22T13:35:30;30.30;99.90
4187;DHT22;2107;52.306;10.484;2023-06-22T13:37:57;30.30;99.90
4187;DHT22;2107;52.306;10.484;2023-06-22T13:40:24;30.40;99.90
4187;DHT22;2107;52.306;10.484;2023-06-22T13:42:51;30.20;99.90
4187;DHT22;2107;52.306;10.484;2023-06-22T13:45:18;30.20;99.90
4187;DHT22;2107;52.306;10.484;2023-06-22T13:47:47;30.30;99.90
4187;DHT22;2107;52.306;10.484;2023-06-22T13:50:14;30.00;99.90
4187;DHT22;2107;52.306;10.484;2023-06-22T13:52:41;30.00;99.90
4187;DHT22;2107;52.306;10.484;2023-06-22T13:55:09;30.00;99.90
4187;DHT22;2107;52.306;10.484;2023-06-22T13:57:36;29.70;99.90
4187;DHT22;2107;52.306;10.484;2023-06-22T14:00:04;28.90;99.90
4187;DHT22;2107;52.306;10.484;2023-06-22T14:02:31;29.30;99.90
4187;DHT22;2107;52.306;10.484;2023-06-22T14:05:00;29.40;99.90
4187;DHT22;2107;52.306;10.484;2023-06-22T14:07:28;29.30;99.90
4187;DHT22;2107;52.306;10.484;2023-06-22T14:09:55;29.00;99.90
4187;DHT22;2107;52.306;10.484;2023-06-22T14:12:27;28.90;99.90
4187;DHT22;2107;52.306;10.484;2023-06-22T14:14:55;28.90;99.90
4187;DHT22;2107;52.306;10.484;2023-06-22T14:17:23;29.00;99.90
4187;DHT22;2107;52.306;10.484;2023-06-22T14:19:52;29.40;99.90
4187;DHT22;2107;52.306;10.484;2023-06-22T14:22:21;29.40;99.90
4187;DHT22;2107;52.306;10.484;2023-06-22T14:24:48;29.20;99.90
4187;DHT22;2107;52.306;10.484;2023-06-22T14:27:16;29.30;99.90
4187;DHT22;2107;52.306;10.484;2023-06-22T14:29:43;29.40;99.90
4187;DHT22;2107;52.306;10.484;2023-06-22T14:32:10;29.00;99.90
4187;DHT22;2107;52.306;10.484;2023-06-22T14:34:36;29.00;99.90
4187;DHT22;2107;52.306;10.484;2023-06-22T14:37:05;28.80;99.90
4187;DHT22;2107;52.306;10.484;2023-06-22T14:39:34;28.80;99.90
4187;DHT22;2107;52.306;10.484;2023-06-22T14:42:01;28.60;99.90
4187;DHT22;2107;52.306;10.484;2023-06-22T14:44:29;28.60;99.90
4187;DHT22;2107;52.306;10.484;2023-06-22T14:46:56;28.60;99.90
4187;DHT22;2107;52.306;10.484;2023-06-22T14:49:23;28.80;99.90
4187;DHT22;2107;52.306;10.484;2023-06-22T14:51:55;29.30;99.90
4187;DHT22;2107;52.306;10.484;2023-06-22T14:54:28;29.40;99.90
4187;DHT22;2107;52.306;10.484;2023-06-22T14:57:03;29.20;99.90
4187;DHT22;2107;52.306;10.484;2023-06-22T14:59:30;29.00;99.90
4187;DHT22;2107;52.306;10.484;2023-06-22T15:02:00;28.80;99.90
4187;DHT22;2107;52.306;10.484;2023-06-22T15:04:27;29.10;99.90
4187;DHT22;2107;52.306;10.484;2023-06-22T15:07:00;29.10;99.90
4187;DHT22;2107;52.306;10.484;2023-06-22T15:09:34;29.00;99.90
4187;DHT22;2107;52.306;10.484;2023-06-22T15:12:08;29.10;99.90
4187;DHT22;2107;52.306;10.484;2023-06-22T15:14:39;29.20;99.90
4187;DHT22;2107;52.306;10.484;2023-06-22T15:17:11;29.00;99.90
4187;DHT22;2107;52.306;10.484;2023-06-22T15:19:44;28.80;99.90
4187;DHT22;2107;52.306;10.484;2023-06-22T15:22:13;28.60;99.90
4187;DHT22;2107;52.306;10.484;2023-06-22T15:24:44;28.40;99.90
4187;DHT22;2107;52.306;10.484;2023-06-22T15:27:15;28.30;99.90
4187;DHT22;2107;52.306;10.484;2023-06-22T15:29:44;28.30;99.90
4187;DHT22;2107;52.306;10.484;2023-06-22T15:32:11;28.10;99.90
4187;DHT22;2107;52.306;10.484;2023-06-22T15:34:38;27.90;99.90
4187;DHT22;2107;52.306;10.484;2023-06-22T15:37:06;27.80;99.90
4187;DHT22;2107;52.306;10.484;2023-06-22T15:39:33;27.50;99.90
4187;DHT22;2107;52.306;10.484;2023-06-22T15:42:00;27.30;99.90
4187;DHT22;2107;52.306;10.484;2023-06-22T15:44:29;27.10;99.90
4187;DHT22;2107;52.306;10.484;2023-06-22T15:46:56;26.90;99.90
4187;DHT22;2107;52.306;10.484;2023-06-22T15:49:22;26.80;99.90
4187;DHT22;2107;52.306;10.484;2023-06-22T15:51:49;26.70;99.90